Time,TemperatureF,DewpointF,PressureIn,WindDirection,WindDirectionDegrees,WindSpeedMPH,WindSpeedGustMPH,Humidity,HourlyPrecipIn,Conditions,Clouds,dailyrainin,SoftwareType,DateUTC
2013-04-29 14:30:00,59.2,48.6,29.99,SE,135,6.7,-999.0,68,-99.99,,,0.00,Acu-Link.com,2013-04-29 18:30:00,
2013-04-29 14:45:00,58.8,48.7,30.00,SE,135,6.3,-999.0,69,-99.99,,,0.00,Acu-Link.com,2013-04-29 18:45:00,
2013-04-29 15:00:00,59.5,49.4,29.99,SSE,157,8.9,-999.0,69,-99.99,,,0.00,Acu-Link.com,2013-04-29 19:00:00,
2013-04-29 15:16:00,59.9,49.3,30.00,SE,135,6.3,-999.0,68,-99.99,,,0.00,Acu-Link.com,2013-04-29 19:16:00,
2013-04-29 15:31:00,60.8,49.4,29.99,SSE,157,5.1,-999.0,66,-99.99,,,0.00,Acu-Link.com,2013-04-29 19:31:00,
2013-04-29 15:46:00,60.8,49.4,29.99,ESE,112,4.3,-999.0,66,-99.99,,,0.00,Acu-Link.com,2013-04-29 19:46:00,
2013-04-29 16:01:00,61.7,49.8,29.98,SSE,157,6.7,-999.0,65,-99.99,,,0.00,Acu-Link.com,2013-04-29 20:01:00,
2013-04-29 16:16:00,62.2,49.5,29.98,South,180,3.8,-999.0,63,-99.99,,,0.00,Acu-Link.com,2013-04-29 20:16:00,
2013-04-29 16:32:00,61.3,49.5,29.98,ESE,112,4.7,-999.0,65,-99.99,,,0.00,Acu-Link.com,2013-04-29 20:32:00,
2013-04-29 16:47:00,61.5,50.1,29.98,ESE,112,6.3,-999.0,66,-99.99,,,0.00,Acu-Link.com,2013-04-29 20:47:00,
2013-04-29 17:02:00,63.3,50.5,29.98,ESE,112,5.1,-999.0,63,-99.99,,,0.00,Acu-Link.com,2013-04-29 21:02:00,
2013-04-29 17:17:00,62.8,50.0,29.98,SSE,157,5.1,-999.0,63,-99.99,,,0.00,Acu-Link.com,2013-04-29 21:17:00,
2013-04-29 17:32:00,61.9,49.1,29.98,SSW,202,4.7,-999.0,63,-99.99,,,0.00,Acu-Link.com,2013-04-29 21:32:00,
2013-04-29 17:48:00,61.7,49.4,29.98,SE,135,3.8,-999.0,64,-99.99,,,0.00,Acu-Link.com,2013-04-29 21:48:00,
2013-04-29 18:03:00,61.0,49.1,29.98,SSE,157,4.3,-999.0,65,-99.99,,,0.00,Acu-Link.com,2013-04-29 22:03:00,
2013-04-29 18:18:00,60.4,49.0,29.99,ESE,112,3.8,-999.0,66,-99.99,,,0.00,Acu-Link.com,2013-04-29 22:18:00,
2013-04-29 18:33:00,60.1,48.7,29.99,ESE,112,2.7,-999.0,66,-99.99,,,0.00,Acu-Link.com,2013-04-29 22:33:00,
2013-04-29 18:48:00,59.7,48.7,29.99,SE,135,5.1,-999.0,67,-99.99,,,0.00,Acu-Link.com,2013-04-29 22:48:00,
2013-04-29 19:04:00,59.4,48.8,30.00,SE,135,5.1,-999.0,68,-99.99,,,0.00,Acu-Link.com,2013-04-29 23:04:00,
2013-04-29 19:19:00,59.4,48.8,30.00,ESE,112,4.3,-999.0,68,-99.99,,,0.00,Acu-Link.com,2013-04-29 23:19:00,
2013-04-29 19:34:00,59.0,48.8,30.00,SSE,157,3.8,-999.0,69,-99.99,,,0.00,Acu-Link.com,2013-04-29 23:34:00,
2013-04-29 19:49:00,58.5,48.7,30.01,SE,135,3.1,-999.0,70,-99.99,,,0.00,Acu-Link.com,2013-04-29 23:49:00,
2013-04-29 20:05:00,58.1,48.4,30.01,ESE,112,3.1,-999.0,70,-99.99,,,0.00,Acu-Link.com,2013-04-30 00:05:00,
2013-04-29 20:20:00,57.7,48.0,30.01,SE,135,3.8,-999.0,70,-99.99,,,0.00,Acu-Link.com,2013-04-30 00:20:00,
2013-04-29 20:35:00,57.4,48.4,30.01,SE,135,5.1,-999.0,72,-99.99,,,0.00,Acu-Link.com,2013-04-30 00:35:00,
2013-04-29 20:50:00,57.2,48.3,30.02,SE,135,4.7,-999.0,72,-99.99,,,0.00,Acu-Link.com,2013-04-30 00:50:00,
2013-04-29 21:05:00,57.0,48.1,30.03,SE,135,4.7,-999.0,72,-99.99,,,0.00,Acu-Link.com,2013-04-30 01:05:00,
2013-04-29 21:21:00,56.7,48.1,30.03,SSE,157,3.1,-999.0,73,-99.99,,,0.00,Acu-Link.com,2013-04-30 01:21:00,
2013-04-29 21:36:00,56.5,47.9,30.04,SSE,157,4.3,-999.0,73,-99.99,,,0.00,Acu-Link.com,2013-04-30 01:36:00,
2013-04-29 21:51:00,56.3,48.1,30.05,SSE,157,4.7,-999.0,74,-99.99,,,0.00,Acu-Link.com,2013-04-30 01:51:00,
2013-04-29 22:06:00,55.9,47.8,30.05,ESE,112,6.7,-999.0,74,-99.99,,,0.00,Acu-Link.com,2013-04-30 02:06:00,
2013-04-29 22:21:00,55.6,47.8,30.05,SSE,157,6.3,-999.0,75,-99.99,,,0.00,Acu-Link.com,2013-04-30 02:21:00,
2013-04-29 22:36:00,55.4,48.0,30.05,SSE,157,5.1,-999.0,76,-99.99,,,0.00,Acu-Link.com,2013-04-30 02:36:00,
2013-04-29 22:52:00,55.2,48.1,30.04,SSE,157,3.8,-999.0,77,-99.99,,,0.00,Acu-Link.com,2013-04-30 02:52:00,
2013-04-29 23:07:00,55.0,48.0,30.04,SE,135,4.3,-999.0,77,-99.99,,,0.00,Acu-Link.com,2013-04-30 03:07:00,
2013-04-29 23:22:00,54.9,48.1,30.05,ESE,112,4.7,-999.0,78,-99.99,,,0.00,Acu-Link.com,2013-04-30 03:22:00,
2013-04-29 23:37:00,54.9,48.1,30.04,SSE,157,4.3,-999.0,78,-99.99,,,0.00,Acu-Link.com,2013-04-30 03:37:00,
2013-04-29 23:52:00,54.9,48.5,30.04,SE,135,4.7,-999.0,79,-99.99,,,0.00,Acu-Link.com,2013-04-30 03:52:00,